Time;durP1;ratioP1;P1;durP2;ratioP2;P2;SDS_P1;SDS_P2;PMS_P1;PMS_P2;Temp;Humidity;BMP_temperature;BMP_pressure;BME280_temperature;BME280_humidity;BME280_pressure;Samples;Min_cycle;Max_cycle;Signal;HPM_P1;HPM_P2
2022/07/10 00:00:12;;;;;;;9.88;9.27;;;;;;;20.04;71.79;94939.81;5068334;27;20205;-68
2022/07/10 00:02:39;;;;;;;10.25;9.45;;;;;;;20.09;71.40;94929.94;5068150;27;20205;-69
2022/07/10 00:05:07;;;;;;;10.35;9.60;;;;;;;20.09;71.33;94942.84;5068231;27;20293;-70
2022/07/10 00:07:34;;;;;;;12.13;8.88;;;;;;;20.08;71.30;94930.88;5068492;27;20204;-69
2022/07/10 00:10:04;;;;;;;10.40;9.52;;;;;;;20.01;71.53;94932.28;5068834;27;20216;-69
2022/07/10 00:12:31;;;;;;;10.35;9.65;;;;;;;20.10;71.30;94931.59;5067653;27;20813;-68
2022/07/10 00:14:57;;;;;;;10.38;9.65;;;;;;;20.18;71.07;94928.47;5068500;27;20201;-69
2022/07/10 00:17:24;;;;;;;9.38;8.68;;;;;;;20.23;70.73;94934.94;5068160;27;20205;-70
2022/07/10 00:19:51;;;;;;;10.23;9.23;;;;;;;20.10;70.95;94933.34;5067405;27;20705;-69
2022/07/10 00:22:18;;;;;;;9.75;8.85;;;;;;;20.05;71.23;94936.25;5066521;27;20753;-68
2022/07/10 00:24:45;;;;;;;9.85;9.07;;;;;;;19.98;71.60;94929.94;5066733;27;20872;-69
2022/07/10 00:27:13;;;;;;;10.85;9.85;;;;;;;19.85;71.92;94927.41;5068544;27;20201;-69
2022/07/10 00:29:40;;;;;;;10.07;9.10;;;;;;;19.94;71.84;94923.34;5068179;27;20208;-69
2022/07/10 00:32:07;;;;;;;10.18;9.38;;;;;;;19.88;72.06;94926.34;5067633;27;21372;-68
2022/07/10 00:34:35;;;;;;;14.82;9.48;;;;;;;19.88;71.82;94923.78;5066072;28;20266;-68
2022/07/10 00:37:01;;;;;;;10.68;9.82;;;;;;;19.76;72.39;94922.09;5069255;27;20285;-69
2022/07/10 00:39:28;;;;;;;10.30;9.40;;;;;;;19.65;72.89;94926.25;5068039;27;20266;-69
2022/07/10 00:41:55;;;;;;;11.30;9.82;;;;;;;19.75;72.22;94925.59;5067962;27;20254;-70
2022/07/10 00:44:23;;;;;;;11.40;10.02;;;;;;;19.79;72.26;94921.88;5066326;27;20209;-70
2022/07/10 00:46:51;;;;;;;11.00;9.93;;;;;;;19.52;72.95;94920.34;5066660;27;20693;-72
2022/07/10 00:49:18;;;;;;;9.70;9.10;;;;;;;19.32;74.33;94919.09;5067135;27;20211;-70
2022/07/10 00:51:44;;;;;;;10.48;9.75;;;;;;;19.09;75.66;94908.75;5067230;27;20216;-73
2022/07/10 00:54:11;;;;;;;11.38;10.38;;;;;;;18.86;76.06;94906.00;5066278;27;20225;-70
2022/07/10 00:56:38;;;;;;;10.88;10.13;;;;;;;18.34;77.65;94912.06;5067109;27;20201;-70
2022/07/10 00:59:05;;;;;;;11.90;10.68;;;;;;;18.46;78.59;94917.34;5067282;27;20225;-71
2022/07/10 01:01:35;;;;;;;10.25;9.63;;;;;;;18.25;78.47;94907.56;5066647;27;20209;-69
2022/07/10 01:04:01;;;;;;;11.77;10.77;;;;;;;17.57;81.59;94906.84;5066602;27;20193;-70
2022/07/10 01:06:28;;;;;;;12.10;11.02;;;;;;;17.21;84.00;94907.38;5069207;27;20209;-71
2022/07/10 01:08:55;;;;;;;12.27;11.02;;;;;;;16.93;85.45;94905.69;5066825;27;21517;-69
2022/07/10 01:11:22;;;;;;;12.18;10.90;;;;;;;16.95;85.63;94909.81;5067878;27;20591;-69
2022/07/10 01:13:49;;;;;;;12.13;11.15;;;;;;;17.33;84.64;94898.91;5067207;27;20756;-69
2022/07/10 01:16:17;;;;;;;11.35;10.35;;;;;;;17.67;83.64;94902.78;5066966;27;20201;-70
2022/07/10 01:18:45;;;;;;;12.35;11.27;;;;;;;17.90;82.30;94904.69;5067177;27;20201;-70
2022/07/10 01:21:26;;;;;;;13.65;12.25;;;;;;;17.86;82.03;94899.84;5065557;27;20462;-70
2022/07/10 01:23:53;;;;;;;11.90;10.82;;;;;;;18.10;80.48;94898.25;5067849;27;20196;-70
2022/07/10 01:26:21;;;;;;;12.60;11.10;;;;;;;18.27;79.83;94897.97;5066033;28;20636;-70
2022/07/10 01:28:50;;;;;;;10.77;9.85;;;;;;;18.41;78.96;94893.66;5067377;28;20205;-70
2022/07/10 01:31:18;;;;;;;10.05;9.35;;;;;;;18.53;78.67;94892.84;5066444;28;20211;-69
2022/07/10 01:33:45;;;;;;;12.13;11.00;;;;;;;18.43;78.63;94889.22;5067497;28;20232;-70
2022/07/10 01:36:12;;;;;;;11.25;10.30;;;;;;;18.34;78.43;94888.91;5066574;28;20201;-69
2022/07/10 01:38:40;;;;;;;10.30;9.50;;;;;;;18.30;78.99;94884.91;5066610;28;20216;-69
2022/07/10 01:41:08;;;;;;;11.00;10.07;;;;;;;18.08;79.56;94881.28;5067953;28;20209;-70
2022/07/10 01:43:35;;;;;;;11.15;10.15;;;;;;;17.97;80.28;94877.66;5067037;28;20204;-69
2022/07/10 01:46:02;;;;;;;10.27;9.32;;;;;;;18.03;79.80;94876.44;5066220;28;20228;-70
2022/07/10 01:48:29;;;;;;;11.07;10.45;;;;;;;17.99;80.13;94878.41;5065712;28;20307;-70
2022/07/10 01:50:56;;;;;;;10.80;9.75;;;;;;;17.95;80.17;94881.25;5066932;28;20204;-70
2022/07/10 01:53:23;;;;;;;10.88;8.70;;;;;;;17.95;80.25;94876.13;5065996;28;20229;-69
2022/07/10 01:55:51;;;;;;;10.32;9.38;;;;;;;18.00;80.18;94881.78;5067010;28;20203;-70
2022/07/10 01:58:18;;;;;;;10.35;9.23;;;;;;;18.09;79.33;94877.78;5067378;28;20209;-69
2022/07/10 02:00:45;;;;;;;9.57;8.85;;;;;;;18.17;79.45;94878.09;5066288;28;20650;-70
2022/07/10 02:05:56;;;;;;;9.60;9.00;;;;;;;18.12;78.85;94873.25;5069533;27;21542;-70
2022/07/10 02:08:23;;;;;;;10.30;9.27;;;;;;;18.02;79.71;94869.66;5070502;27;20561;-69
2022/07/10 02:10:51;;;;;;;8.93;8.40;;;;;;;18.06;78.95;94862.56;5070802;27;20211;-71
2022/07/10 02:13:20;;;;;;;10.48;9.40;;;;;;;17.89;80.05;94866.22;5070422;27;20233;-71
2022/07/10 02:15:47;;;;;;;11.05;10.20;;;;;;;17.81;80.41;94863.34;5067593;27;20739;-70
2022/07/10 02:18:13;;;;;;;10.98;9.93;;;;;;;17.78;80.41;94863.56;5069662;27;20203;-70
2022/07/10 02:20:40;;;;;;;10.57;9.43;;;;;;;17.68;81.19;94859.00;5071375;27;21408;-70
2022/07/10 02:23:07;;;;;;;10.85;9.85;;;;;;;17.72;81.07;94869.06;5068050;28;20285;-70
2022/07/10 02:25:34;;;;;;;10.15;9.40;;;;;;;17.87;80.14;94868.06;5069561;27;20236;-70
2022/07/10 02:28:02;;;;;;;10.43;9.57;;;;;;;17.78;80.92;94873.84;5068543;27;20213;-70
2022/07/10 02:30:29;;;;;;;10.40;9.50;;;;;;;17.67;80.92;94872.75;5070362;27;20917;-69
2022/07/10 02:32:56;;;;;;;9.68;9.10;;;;;;;17.73;80.56;94868.97;5069589;27;21184;-69
2022/07/10 02:35:23;;;;;;;9.77;8.90;;;;;;;17.85;80.60;94860.47;5070384;27;20215;-69
2022/07/10 02:37:49;;;;;;;11.95;10.85;;;;;;;18.00;79.55;94867.19;5069290;27;20596;-68
2022/07/10 02:40:16;;;;;;;10.00;9.00;;;;;;;17.86;79.60;94859.53;5070228;27;20232;-69
2022/07/10 02:42:43;;;;;;;11.20;9.82;;;;;;;17.96;79.46;94867.50;5069659;27;20789;-70
2022/07/10 02:45:11;;;;;;;9.50;8.90;;;;;;;18.00;78.95;94863.78;5069669;27;20808;-70
2022/07/10 02:47:38;;;;;;;9.85;9.15;;;;;;;17.96;79.28;94868.31;5068324;27;20205;-68
2022/07/10 02:50:05;;;;;;;11.15;9.90;;;;;;;17.86;80.02;94863.84;5069048;27;20781;-69
2022/07/10 02:52:32;;;;;;;10.10;9.27;;;;;;;17.87;80.01;94870.66;5069257;27;20205;-69
2022/07/10 02:54:59;;;;;;;11.05;9.88;;;;;;;17.87;79.74;94875.78;5069328;27;20240;-69
2022/07/10 02:57:27;;;;;;;10.43;8.82;;;;;;;17.66;80.28;94871.13;5067379;27;20223;-68
2022/07/10 02:59:54;;;;;;;14.88;9.95;;;;;;;17.41;81.35;94876.13;5068856;27;20205;-70
2022/07/10 03:02:22;;;;;;;9.77;9.15;;;;;;;17.41;81.66;94877.88;5066668;27;20573;-69
2022/07/10 03:04:49;;;;;;;10.23;9.48;;;;;;;17.53;80.81;94879.69;5068758;27;20617;-70
2022/07/10 03:07:16;;;;;;;10.60;9.50;;;;;;;17.51;81.42;94879.78;5069314;27;20204;-70
2022/07/10 03:09:42;;;;;;;9.70;9.02;;;;;;;17.36;81.67;94893.56;5069941;27;20278;-70
2022/07/10 03:12:09;;;;;;;9.88;9.23;;;;;;;17.37;81.31;94887.53;5069523;27;20215;-69
2022/07/10 03:14:36;;;;;;;11.68;9.48;;;;;;;17.43;81.66;94884.56;5068348;27;20265;-71
2022/07/10 03:17:03;;;;;;;10.30;9.50;;;;;;;17.48;81.10;94887.69;5067354;27;20208;-71
2022/07/10 03:19:33;;;;;;;10.63;9.68;;;;;;;17.30;81.62;94891.41;5068729;27;20678;-69
2022/07/10 03:22:00;;;;;;;10.55;9.32;;;;;;;17.39;81.87;94892.56;5067281;27;20224;-69
2022/07/10 03:24:26;;;;;;;11.55;9.82;;;;;;;17.24;82.36;94894.34;5067722;27;20232;-69
2022/07/10 03:26:53;;;;;;;10.43;9.68;;;;;;;17.12;82.91;94897.66;5067277;27;20197;-70
2022/07/10 03:29:20;;;;;;;10.95;9.90;;;;;;;17.16;83.45;94907.66;5069845;27;20208;-70
2022/07/10 03:31:47;;;;;;;13.38;9.77;;;;;;;17.63;81.09;94902.13;5069939;27;20239;-70
2022/07/10 03:34:13;;;;;;;9.88;9.07;;;;;;;17.99;80.12;94896.41;5069157;27;20654;-71
2022/07/10 03:36:42;;;;;;;9.52;8.70;;;;;;;18.35;77.92;94900.84;5069601;27;20318;-70
2022/07/10 03:39:08;;;;;;;9.50;8.80;;;;;;;18.66;77.25;94901.41;5068819;27;20204;-70
2022/07/10 03:41:36;;;;;;;9.80;8.77;;;;;;;19.21;75.02;94895.03;5069576;27;20200;-71
2022/07/10 03:44:03;;;;;;;9.80;8.70;;;;;;;19.58;73.08;94891.53;5068785;27;20205;-70
2022/07/10 03:46:30;;;;;;;9.63;8.75;;;;;;;19.69;72.77;94894.16;5069836;27;20201;-69
2022/07/10 03:48:56;;;;;;;9.10;8.40;;;;;;;19.82;72.15;94885.53;5068392;27;21359;-69
2022/07/10 03:51:23;;;;;;;8.00;7.32;;;;;;;20.12;71.15;94896.19;5069085;27;20558;-70
2022/07/10 03:53:52;;;;;;;8.27;7.70;;;;;;;20.26;70.25;94888.28;5068184;27;21872;-69
2022/07/10 03:58:59;;;;;;;7.88;7.30;;;;;;;21.39;66.46;94883.03;5066945;27;20707;-70
2022/07/10 04:01:26;;;;;;;8.85;8.10;;;;;;;21.90;65.05;94890.16;5068955;27;20324;-71
2022/07/10 04:03:53;;;;;;;7.35;6.90;;;;;;;22.45;62.66;94884.88;5068480;27;20892;-70
2022/07/10 04:06:20;;;;;;;10.02;7.32;;;;;;;22.02;63.51;94885.81;5069378;27;20228;-70
2022/07/10 04:08:46;;;;;;;9.30;7.28;;;;;;;22.73;62.13;94891.97;5068619;27;20201;-71
2022/07/10 04:11:15;;;;;;;7.13;6.55;;;;;;;23.27;60.07;94876.09;5070611;27;20204;-70
2022/07/10 04:13:42;;;;;;;7.28;6.70;;;;;;;23.37;59.17;94876.13;5067909;27;20209;-70
2022/07/10 04:16:12;;;;;;;7.47;6.70;;;;;;;22.88;61.00;94869.97;5069282;27;20208;-71
2022/07/10 04:18:39;;;;;;;7.30;6.80;;;;;;;22.64;61.76;94872.00;5069231;27;20216;-69
2022/07/10 04:21:06;;;;;;;7.35;6.80;;;;;;;22.30;62.99;94872.22;5069120;27;20267;-70
2022/07/10 04:23:33;;;;;;;8.07;6.57;;;;;;;21.60;64.88;94872.75;5067931;27;20676;-70
2022/07/10 04:26:00;;;;;;;6.55;6.15;;;;;;;21.49;65.67;94870.22;5067378;27;20332;-70
2022/07/10 04:28:28;;;;;;;7.93;7.35;;;;;;;21.56;65.32;94867.94;5067933;27;20213;-71
2022/07/10 04:30:55;;;;;;;8.15;6.68;;;;;;;21.52;65.66;94867.41;5068393;28;20209;-71
2022/07/10 04:33:22;;;;;;;7.30;6.65;;;;;;;21.59;65.62;94868.53;5067417;27;20297;-70
2022/07/10 04:35:49;;;;;;;7.22;6.82;;;;;;;21.41;65.61;94864.81;5067340;27;20224;-70
2022/07/10 04:38:15;;;;;;;7.10;6.60;;;;;;;21.22;66.10;94860.28;5067251;27;20296;-72
2022/07/10 04:40:42;;;;;;;7.53;7.10;;;;;;;21.23;66.06;94868.88;5068876;27;20201;-71
2022/07/10 04:43:10;;;;;;;6.53;6.22;;;;;;;21.22;66.43;94862.06;5068990;27;20212;-71
2022/07/10 04:45:38;;;;;;;7.05;6.65;;;;;;;21.31;65.79;94863.91;5068239;27;20220;-70
2022/07/10 04:48:06;;;;;;;7.68;7.18;;;;;;;21.12;66.83;94868.84;5067280;27;20654;-72
2022/07/10 04:50:33;;;;;;;8.57;6.80;;;;;;;21.37;65.92;94879.75;5067902;27;22035;-70
2022/07/10 04:53:00;;;;;;;7.10;6.60;;;;;;;21.50;65.38;94874.44;5067072;27;20227;-70
2022/07/10 04:55:27;;;;;;;7.32;6.82;;;;;;;21.88;64.17;94867.94;5067093;27;20330;-70
2022/07/10 04:57:53;;;;;;;6.50;6.10;;;;;;;22.66;61.66;94870.94;5067505;27;20300;-70
2022/07/10 05:00:20;;;;;;;6.63;6.13;;;;;;;23.07;60.78;94870.03;5068397;27;20208;-70
2022/07/10 05:02:48;;;;;;;8.48;6.25;;;;;;;22.99;61.02;94866.47;5067952;27;20269;-70
2022/07/10 05:05:15;;;;;;;6.10;5.75;;;;;;;23.36;59.42;94864.94;5068603;27;20242;-70
2022/07/10 05:07:42;;;;;;;6.00;5.72;;;;;;;23.04;60.06;94864.28;5066724;28;20212;-70
2022/07/10 05:10:10;;;;;;;6.85;6.55;;;;;;;22.81;61.13;94853.31;5067596;27;20209;-70
2022/07/10 05:12:36;;;;;;;7.50;7.00;;;;;;;22.23;62.52;94862.53;5067870;27;20197;-71
2022/07/10 05:15:03;;;;;;;7.97;7.32;;;;;;;22.06;63.41;94874.25;5067353;28;20643;-71
2022/07/10 05:17:31;;;;;;;6.45;6.10;;;;;;;22.21;62.51;94862.66;5065629;28;21053;-71
2022/07/10 05:19:59;;;;;;;7.53;6.82;;;;;;;22.48;61.67;94864.72;5067769;28;20212;-71
2022/07/10 05:22:26;;;;;;;6.57;6.18;;;;;;;23.65;58.49;94865.00;5065550;27;20701;-72
2022/07/10 05:24:53;;;;;;;7.10;6.45;;;;;;;25.75;52.59;94850.72;5067018;27;20239;-71
2022/07/10 05:27:20;;;;;;;6.65;5.85;;;;;;;26.99;49.58;94852.28;5067438;27;20219;-70
2022/07/10 05:29:47;;;;;;;6.13;5.60;;;;;;;27.72;47.04;94860.34;5068814;28;20236;-72
2022/07/10 05:32:14;;;;;;;6.38;5.63;;;;;;;27.93;46.24;94846.84;5066870;28;20270;-72
2022/07/10 05:34:41;;;;;;;9.35;5.13;;;;;;;28.55;45.31;94852.41;5067191;28;20297;-71
2022/07/10 05:37:09;;;;;;;6.88;5.20;;;;;;;29.62;42.68;94851.09;5067608;27;20204;-71
2022/07/10 05:39:36;;;;;;;5.53;5.32;;;;;;;29.02;43.60;94852.47;5068662;28;20197;-72
2022/07/10 05:42:03;;;;;;;5.13;4.82;;;;;;;29.18;43.09;94845.56;5068470;28;20200;-71
2022/07/10 05:44:30;;;;;;;5.68;5.20;;;;;;;28.66;44.04;94835.56;5067314;28;20610;-71
2022/07/10 05:46:57;;;;;;;5.15;4.75;;;;;;;28.92;43.81;94836.16;5068266;28;20207;-71
2022/07/10 05:49:24;;;;;;;4.90;4.70;;;;;;;29.14;43.25;94844.25;5068449;28;20922;-71
2022/07/10 05:51:50;;;;;;;4.78;4.40;;;;;;;29.47;43.07;94850.97;5067676;28;20213;-72
2022/07/10 05:54:19;;;;;;;5.72;5.13;;;;;;;30.10;40.88;94845.53;5067722;28;20220;-72
2022/07/10 05:56:46;;;;;;;4.95;4.65;;;;;;;29.58;41.75;94848.00;5071820;28;20630;-72
2022/07/10 05:59:12;;;;;;;5.15;4.38;;;;;;;29.19;42.40;94834.09;5067255;28;20291;-70
2022/07/10 06:01:39;;;;;;;4.43;4.22;;;;;;;29.43;42.25;94837.44;5067464;28;20208;-71
2022/07/10 06:04:06;;;;;;;4.93;4.53;;;;;;;28.68;44.02;94841.44;5067434;28;20254;-71
2022/07/10 06:06:32;;;;;;;7.68;4.65;;;;;;;27.41;46.19;94843.63;5067939;28;20270;-72
2022/07/10 06:09:00;;;;;;;5.88;4.40;;;;;;;27.93;45.52;94846.03;5067929;28;20636;-72
2022/07/10 06:11:28;;;;;;;7.95;4.75;;;;;;;28.29;44.86;94842.13;5067857;28;20907;-71
2022/07/10 06:13:55;;;;;;;4.95;4.65;;;;;;;29.07;42.66;94839.69;5067491;28;20330;-71
2022/07/10 06:16:22;;;;;;;4.90;4.45;;;;;;;29.76;41.78;94843.28;5066789;28;20220;-71
2022/07/10 06:18:49;;;;;;;7.47;4.68;;;;;;;30.20;40.67;94842.66;5067322;28;20205;-73
2022/07/10 06:21:18;;;;;;;4.28;4.03;;;;;;;31.02;39.14;94838.25;5066348;28;21294;-72
2022/07/10 06:23:45;;;;;;;3.97;3.78;;;;;;;30.46;39.76;94835.22;5066905;28;20366;-72
2022/07/10 06:26:12;;;;;;;4.25;3.83;;;;;;;29.53;41.26;94841.63;5066211;28;20321;-72
2022/07/10 06:28:40;;;;;;;5.28;4.43;;;;;;;28.02;44.11;94834.59;5065564;28;20326;-71
2022/07/10 06:31:07;;;;;;;4.18;3.97;;;;;;;26.61;47.87;94847.50;5066840;28;20208;-72
2022/07/10 06:33:35;;;;;;;7.35;4.57;;;;;;;26.05;48.85;94835.66;5068357;28;20878;-71
2022/07/10 06:36:01;;;;;;;7.07;4.15;;;;;;;26.46;48.40;94833.41;5067666;28;20294;-71
2022/07/10 06:38:28;;;;;;;4.70;4.28;;;;;;;26.66;47.79;94837.44;5068711;28;20225;-71
2022/07/10 06:40:55;;;;;;;5.43;4.97;;;;;;;27.21;46.79;94834.44;5069967;28;20208;-71
2022/07/10 06:43:22;;;;;;;7.53;6.10;;;;;;;27.12;47.16;94838.00;5067196;28;20201;-71
2022/07/10 06:45:50;;;;;;;7.00;6.43;;;;;;;26.64;48.17;94834.97;5068783;28;20689;-71
2022/07/10 06:48:18;;;;;;;5.13;4.82;;;;;;;26.14;48.68;94833.97;5066325;28;20295;-70
2022/07/10 06:50:45;;;;;;;8.90;5.68;;;;;;;25.53;50.55;94835.50;5070427;27;20205;-69
2022/07/10 06:53:12;;;;;;;6.35;5.72;;;;;;;25.44;50.61;94836.41;5071185;27;20209;-71
2022/07/10 06:55:39;;;;;;;25.85;16.63;;;;;;;25.57;50.63;94836.84;5070282;27;20724;-70
2022/07/10 06:58:06;;;;;;;12.18;8.65;;;;;;;25.79;50.15;94834.78;5069676;27;20218;-71
2022/07/10 07:00:32;;;;;;;6.55;6.15;;;;;;;25.64;50.82;94832.72;5070828;27;20705;-71
2022/07/10 07:03:01;;;;;;;7.85;7.22;;;;;;;25.28;51.51;94833.59;5070399;28;20726;-72
2022/07/10 07:05:27;;;;;;;11.95;10.48;;;;;;;25.13;51.92;94827.28;5072862;27;20699;-72
2022/07/10 07:07:54;;;;;;;8.63;7.93;;;;;;;24.74;53.31;94830.03;5071914;27;20277;-72
2022/07/10 07:10:21;;;;;;;7.97;7.45;;;;;;;24.37;54.91;94830.00;5074215;27;21744;-73
2022/07/10 07:12:47;;;;;;;6.78;6.10;;;;;;;24.37;55.28;94824.81;5075587;27;20208;-72
2022/07/10 07:15:16;;;;;;;7.05;4.95;;;;;;;24.76;54.93;94822.88;5075025;27;20646;-72
2022/07/10 07:18:07;;;;;;;5.43;5.00;;;;;;;25.67;53.18;94824.63;5071562;27;20309;-72
2022/07/10 07:23:20;;;;;;;6.85;6.35;;;;;;;26.05;50.42;94822.66;5070142;27;20212;-71
2022/07/10 07:25:47;;;;;;;14.70;10.90;;;;;;;26.23;50.52;94828.63;5071971;27;20240;-72
2022/07/10 07:28:16;;;;;;;7.40;6.88;;;;;;;26.04;50.47;94818.41;5068253;27;20209;-70
2022/07/10 07:30:43;;;;;;;10.48;6.22;;;;;;;25.74;51.28;94807.41;5069886;27;20324;-70
2022/07/10 07:33:10;;;;;;;9.20;8.35;;;;;;;25.66;51.31;94809.97;5069649;27;20782;-71
2022/07/10 07:35:38;;;;;;;302.13;196.52;;;;;;;25.52;51.76;94812.22;5068253;28;20240;-70
2022/07/10 07:38:06;;;;;;;23.42;19.67;;;;;;;25.82;52.14;94808.47;5052389;28;20662;-70
2022/07/10 07:40:33;;;;;;;7.30;6.68;;;;;;;25.74;51.32;94817.84;5069830;27;21500;-71
2022/07/10 07:43:00;;;;;;;22.85;16.77;;;;;;;26.02;51.08;94815.13;5067566;27;20201;-70
2022/07/10 07:45:27;;;;;;;18.20;10.68;;;;;;;25.76;50.61;94805.50;5070727;27;20201;-69
2022/07/10 07:47:56;;;;;;;18.83;11.27;;;;;;;25.66;51.39;94811.75;5067642;27;21071;-69
2022/07/10 07:50:25;;;;;;;9.30;8.40;;;;;;;25.98;51.01;94814.66;5068670;27;20585;-69
2022/07/10 07:52:54;;;;;;;10.02;7.32;;;;;;;26.27;50.10;94808.31;5066916;27;20616;-70
2022/07/10 07:55:22;;;;;;;5.38;4.80;;;;;;;26.28;49.29;94808.16;5069106;27;20224;-70
2022/07/10 07:57:53;;;;;;;7.38;6.68;;;;;;;26.07;49.74;94812.91;5068565;27;20205;-70
2022/07/10 08:00:22;;;;;;;6.35;5.75;;;;;;;25.96;50.13;94805.34;5067560;27;20205;-70
2022/07/10 08:02:49;;;;;;;6.05;5.15;;;;;;;25.58;49.69;94798.63;5068435;27;20205;-71
2022/07/10 08:05:16;;;;;;;5.75;5.15;;;;;;;25.42;50.03;94797.53;5067697;27;20228;-70
2022/07/10 08:07:44;;;;;;;12.43;9.25;;;;;;;25.33;50.92;94803.59;5067225;27;20755;-71
2022/07/10 08:10:14;;;;;;;12.15;10.88;;;;;;;25.30;50.08;94803.88;5065605;27;20205;-71
2022/07/10 08:12:41;;;;;;;6.15;5.65;;;;;;;25.49;50.08;94797.72;5067595;27;20200;-71
2022/07/10 08:15:09;;;;;;;7.65;6.85;;;;;;;25.79;50.00;94803.56;5069139;27;20496;-70
2022/07/10 08:17:36;;;;;;;7.00;4.15;;;;;;;25.88;49.35;94800.06;5068524;27;20275;-71
2022/07/10 08:20:03;;;;;;;4.25;3.95;;;;;;;25.47;49.77;94799.69;5069480;27;20205;-70
2022/07/10 08:22:29;;;;;;;3.40;3.10;;;;;;;25.47;49.83;94804.06;5067575;27;20201;-70
2022/07/10 08:24:57;;;;;;;7.03;4.72;;;;;;;25.69;49.16;94798.44;5068897;27;20259;-71
2022/07/10 08:27:25;;;;;;;5.00;3.60;;;;;;;25.73;49.44;94810.19;5067891;27;20817;-70
2022/07/10 08:29:52;;;;;;;6.32;4.25;;;;;;;25.51;48.49;94801.00;5070560;27;20213;-71
2022/07/10 08:32:19;;;;;;;4.68;3.53;;;;;;;25.31;48.67;94812.50;5069391;27;20836;-72
2022/07/10 08:34:46;;;;;;;13.27;8.35;;;;;;;25.30;49.13;94809.09;5071012;27;20860;-70
2022/07/10 08:37:12;;;;;;;6.50;5.90;;;;;;;25.40;48.82;94814.25;5073335;27;20306;-70
2022/07/10 08:39:39;;;;;;;5.03;4.57;;;;;;;25.80;48.02;94795.59;5068304;27;20832;-70
2022/07/10 08:42:07;;;;;;;6.70;6.05;;;;;;;26.42;47.64;94797.22;5068386;27;20637;-71
2022/07/10 08:44:36;;;;;;;12.90;11.60;;;;;;;26.58;46.87;94806.09;5071436;27;20205;-70
2022/07/10 08:47:03;;;;;;;7.45;6.72;;;;;;;26.52;46.05;94798.88;5069904;27;20201;-71
2022/07/10 08:49:31;;;;;;;5.70;5.18;;;;;;;26.70;46.57;94795.25;5068895;27;20690;-71
2022/07/10 08:52:03;;;;;;;4.22;3.17;;;;;;;26.71;46.50;94794.28;5069618;27;20207;-70
2022/07/10 08:54:31;;;;;;;4.65;3.40;;;;;;;26.34;45.78;94799.78;5070962;27;20209;-71
2022/07/10 08:56:59;;;;;;;5.35;4.85;;;;;;;26.29;47.12;94804.59;5069407;27;20221;-69
2022/07/10 08:59:27;;;;;;;7.47;6.78;;;;;;;25.88;47.63;94794.84;5067635;27;20479;-70
2022/07/10 09:01:55;;;;;;;11.98;9.20;;;;;;;25.65;48.36;94794.50;5066055;27;20204;-71
2022/07/10 09:04:25;;;;;;;9.10;8.15;;;;;;;25.48;47.80;94783.13;5068625;27;20209;-70
2022/07/10 09:06:54;;;;;;;17.48;15.52;;;;;;;25.63;47.96;94794.66;5068171;27;20197;-68
2022/07/10 09:09:22;;;;;;;24.77;20.33;;;;;;;25.89;47.94;94789.50;5067619;28;20365;-70
2022/07/10 09:11:49;;;;;;;15.85;11.60;;;;;;;26.41;47.27;94792.97;5065298;27;20204;-69
2022/07/10 09:14:16;;;;;;;13.82;12.27;;;;;;;26.64;46.49;94782.03;5067105;27;20201;-71
2022/07/10 09:16:45;;;;;;;6.07;5.18;;;;;;;26.51;46.70;94774.63;5067658;28;22264;-70
2022/07/10 09:19:19;;;;;;;8.75;7.82;;;;;;;26.42;46.77;94786.81;5068172;28;20617;-71
2022/07/10 09:21:47;;;;;;;9.10;8.23;;;;;;;26.00;47.09;94783.22;5067046;27;20678;-70
2022/07/10 09:24:14;;;;;;;18.85;13.02;;;;;;;25.86;48.57;94784.59;5064792;28;20240;-71
2022/07/10 09:26:42;;;;;;;10.15;6.93;;;;;;;25.83;48.57;94786.69;5068850;28;20209;-71
2022/07/10 09:29:10;;;;;;;7.32;6.57;;;;;;;26.03;47.09;94775.94;5068943;28;20609;-71
2022/07/10 09:31:51;;;;;;;7.78;5.90;;;;;;;26.28;46.28;94771.69;5069396;28;20685;-72
2022/07/10 09:34:35;;;;;;;12.57;9.20;;;;;;;26.37;46.03;94778.63;5066760;28;20205;-70
2022/07/10 09:37:18;;;;;;;4.35;2.85;;;;;;;26.10;44.58;94769.16;5066777;28;20221;-69
2022/07/10 09:39:52;;;;;;;12.48;10.40;;;;;;;26.42;46.15;94765.97;5066558;28;20197;-70
2022/07/10 09:42:26;;;;;;;6.22;3.15;;;;;;;26.64;44.76;94769.81;5065076;28;20203;-70
2022/07/10 09:44:53;;;;;;;3.53;3.33;;;;;;;26.66;44.29;94760.03;5066537;28;20281;-72
2022/07/10 09:47:23;;;;;;;6.70;4.35;;;;;;;26.83;44.29;94766.13;5066826;28;20205;-69
2022/07/10 09:49:51;;;;;;;3.55;3.35;;;;;;;26.62;45.03;94758.72;5067693;28;20219;-69
2022/07/10 09:52:19;;;;;;;3.03;2.70;;;;;;;26.60;44.90;94763.28;5063543;28;20238;-69
2022/07/10 09:54:47;;;;;;;3.67;3.17;;;;;;;26.77;44.86;94764.16;5067232;28;20213;-68
2022/07/10 09:57:17;;;;;;;3.85;2.67;;;;;;;26.98;43.88;94763.75;5066855;28;21489;-70
2022/07/10 09:59:45;;;;;;;4.43;4.00;;;;;;;26.84;44.68;94762.56;5065050;28;20201;-71
2022/07/10 10:02:13;;;;;;;3.95;3.30;;;;;;;26.57;44.64;94767.97;5063665;28;20208;-70
2022/07/10 10:04:42;;;;;;;3.38;3.17;;;;;;;26.34;44.41;94768.50;5066694;28;20225;-72
2022/07/10 10:07:14;;;;;;;2.67;2.53;;;;;;;26.24;44.72;94759.94;5066231;28;20205;-70
2022/07/10 10:09:46;;;;;;;17.85;12.60;;;;;;;26.49;44.79;94760.91;5067118;28;20215;-69
2022/07/10 10:12:21;;;;;;;10.82;9.43;;;;;;;26.37;44.69;94765.59;5066396;28;20212;-70
2022/07/10 10:14:49;;;;;;;8.13;5.15;;;;;;;26.03;45.62;94767.28;5067166;28;20684;-69
2022/07/10 10:17:18;;;;;;;8.32;4.57;;;;;;;25.65;46.00;94765.88;5064858;28;20231;-69
2022/07/10 10:22:34;;;;;;;6.13;5.68;;;;;;;24.98;48.57;94770.56;5062723;28;20216;-70
2022/07/10 10:25:03;;;;;;;6.78;4.93;;;;;;;24.87;48.57;94759.50;5064638;28;20261;-69
2022/07/10 10:27:30;;;;;;;4.00;2.92;;;;;;;25.02;47.78;94763.28;5067385;27;20588;-70
2022/07/10 10:29:58;;;;;;;3.67;2.60;;;;;;;25.36;47.32;94756.50;5067292;27;20209;-69
2022/07/10 10:32:24;;;;;;;5.72;3.30;;;;;;;25.63;47.14;94749.59;5066134;27;20208;-69
2022/07/10 10:34:56;;;;;;;6.05;3.33;;;;;;;25.61;46.74;94749.72;5069829;27;20201;-70
2022/07/10 10:37:40;;;;;;;4.47;4.15;;;;;;;25.77;47.51;94744.66;5069054;27;20217;-69
2022/07/10 10:40:09;;;;;;;7.50;5.72;;;;;;;26.12;46.56;94736.94;5066937;28;20603;-70
2022/07/10 10:42:37;;;;;;;5.85;5.25;;;;;;;26.14;45.37;94751.44;5068893;28;20212;-70
2022/07/10 10:45:36;;;;;;;12.98;10.52;;;;;;;25.85;45.73;94743.09;5070601;27;21015;-70
2022/07/10 10:48:05;;;;;;;16.63;11.95;;;;;;;25.68;46.70;94760.38;5064097;27;20204;-68
2022/07/10 10:50:40;;;;;;;18.65;14.15;;;;;;;25.61;46.86;94744.50;5067826;27;20213;-71
2022/07/10 10:53:16;;;;;;;10.32;7.85;;;;;;;25.60;45.88;94748.06;5065778;27;20215;-70
2022/07/10 10:56:22;;;;;;;6.18;5.68;;;;;;;25.57;46.89;94732.75;5066274;27;20212;-70
2022/07/10 10:58:49;;;;;;;45.97;30.52;;;;;;;25.54;46.57;94737.44;5070190;27;20290;-69
2022/07/10 11:01:30;;;;;;;7.97;7.25;;;;;;;25.64;46.18;94731.22;5067645;27;20205;-70
2022/07/10 11:04:17;;;;;;;6.18;5.65;;;;;;;25.69;46.58;94726.41;5069476;27;20212;-71
2022/07/10 11:06:46;;;;;;;4.28;3.80;;;;;;;25.70;46.94;94728.03;5068399;27;20211;-70
2022/07/10 11:09:28;;;;;;;4.43;3.72;;;;;;;25.69;47.10;94734.19;5068939;27;20205;-70
2022/07/10 11:12:03;;;;;;;6.47;3.28;;;;;;;25.41;47.12;94728.25;5068681;27;20721;-70
2022/07/10 11:14:31;;;;;;;6.88;3.00;;;;;;;25.75;47.56;94723.16;5070219;27;20735;-70
2022/07/10 11:16:57;;;;;;;2.88;2.67;;;;;;;25.89;45.96;94724.41;5071503;27;20235;-70
2022/07/10 11:19:26;;;;;;;3.00;2.67;;;;;;;25.68;46.96;94723.94;5068676;27;20266;-70
2022/07/10 11:22:05;;;;;;;2.67;2.58;;;;;;;25.51;47.30;94727.34;5065208;27;20761;-69
2022/07/10 11:24:43;;;;;;;2.85;2.65;;;;;;;25.29;47.61;94726.00;5066679;27;20243;-70
2022/07/10 11:27:35;;;;;;;2.50;2.30;;;;;;;25.23;47.74;94724.84;5067928;27;20205;-70
2022/07/10 11:30:02;;;;;;;4.32;2.65;;;;;;;25.14;47.88;94728.31;5067850;27;20212;-69
2022/07/10 11:32:30;;;;;;;85.95;57.42;;;;;;;25.17;47.92;94725.41;5067703;27;20269;-68
2022/07/10 11:34:57;;;;;;;6.00;5.28;;;;;;;25.11;48.43;94725.19;5068180;27;20205;-69
2022/07/10 11:37:28;;;;;;;7.60;3.10;;;;;;;25.20;47.07;94719.13;5069760;27;20736;-71
2022/07/10 11:40:13;;;;;;;3.05;2.60;;;;;;;25.33;47.37;94722.97;5069545;27;20278;-69
2022/07/10 11:42:51;;;;;;;2.80;2.63;;;;;;;25.27;46.84;94727.94;5065479;27;20647;-72
2022/07/10 11:45:28;;;;;;;3.90;2.30;;;;;;;25.52;46.90;94719.38;5068405;27;20219;-70